createdAt,value
2023-05-27T00:02:11.555Z,23.96
2023-05-27T00:04:38.530Z,23.96
2023-05-27T00:07:05.592Z,23.96
2023-05-27T00:09:32.465Z,23.95
2023-05-27T00:11:59.394Z,23.95
2023-05-27T00:14:27.334Z,23.95
2023-05-27T00:16:54.380Z,23.95
2023-05-27T00:19:21.275Z,23.95
2023-05-27T00:21:48.191Z,23.95
2023-05-27T00:24:15.237Z,23.95
2023-05-27T00:26:42.158Z,23.94
2023-05-27T00:29:09.125Z,23.93
2023-05-27T00:31:36.335Z,23.93
2023-05-27T00:34:03.570Z,23.93
2023-05-27T00:36:32.914Z,23.93
2023-05-27T00:39:01.353Z,23.92
2023-05-27T00:41:28.577Z,23.92
2023-05-27T00:43:57.672Z,23.92
2023-05-27T00:46:25.399Z,23.92
2023-05-27T00:48:52.745Z,23.93
2023-05-27T00:51:19.823Z,23.94
2023-05-27T00:53:47.670Z,23.95
2023-05-27T00:56:16.789Z,23.95
2023-05-27T00:58:44.646Z,23.95
2023-05-27T01:01:11.826Z,23.96
2023-05-27T01:03:40.399Z,23.96
2023-05-27T01:06:37.967Z,23.97
2023-05-27T01:09:21.405Z,23.96
2023-05-27T01:12:16.421Z,23.95
2023-05-27T01:14:46.389Z,23.95
2023-05-27T01:17:17.398Z,23.95
2023-05-27T01:19:46.593Z,23.95
2023-05-27T01:22:14.994Z,23.94
2023-05-27T01:24:45.511Z,23.93
2023-05-27T01:27:14.419Z,23.93
2023-05-27T01:29:42.697Z,23.91
2023-05-27T01:32:35.808Z,23.89
2023-05-27T01:35:15.309Z,23.87
2023-05-27T01:37:44.094Z,23.88
2023-05-27T01:40:12.542Z,23.87
2023-05-27T01:42:41.391Z,23.87
2023-05-27T01:45:10.924Z,23.89
2023-05-27T01:47:38.036Z,23.89
2023-05-27T01:50:06.408Z,23.91
2023-05-27T01:52:33.454Z,23.91
2023-05-27T01:55:01.608Z,23.92
2023-05-27T01:57:29.205Z,23.93
2023-05-27T01:59:56.221Z,23.93
2023-05-27T02:02:24.008Z,23.94
2023-05-27T02:04:51.358Z,23.94
2023-05-27T02:07:18.383Z,23.94
2023-05-27T02:09:48.016Z,23.94
2023-05-27T02:12:14.996Z,23.93
2023-05-27T02:14:42.162Z,23.93
2023-05-27T02:17:09.260Z,23.94
2023-05-27T02:19:36.533Z,23.93
2023-05-27T02:22:08.612Z,23.92
2023-05-27T02:24:36.585Z,23.92
2023-05-27T02:27:03.855Z,23.93
2023-05-27T02:29:31.013Z,23.92
2023-05-27T02:31:58.552Z,23.91
2023-05-27T02:34:25.881Z,23.91
2023-05-27T02:36:52.970Z,23.91
2023-05-27T02:39:20.124Z,23.90
2023-05-27T02:41:47.101Z,23.90
2023-05-27T02:44:22.775Z,23.93
2023-05-27T02:46:50.123Z,23.91
2023-05-27T02:49:18.524Z,23.90
2023-05-27T02:51:45.670Z,23.89
2023-05-27T02:54:13.172Z,23.89
2023-05-27T02:56:40.601Z,23.88
2023-05-27T02:59:07.931Z,23.87
2023-05-27T03:01:35.220Z,23.87
2023-05-27T03:04:03.473Z,23.87
2023-05-27T03:06:33.145Z,23.87
2023-05-27T03:09:00.991Z,23.88
2023-05-27T03:11:28.295Z,23.88
2023-05-27T03:13:55.440Z,23.88
2023-05-27T03:16:24.363Z,23.89
2023-05-27T03:18:51.755Z,23.88
2023-05-27T03:21:19.510Z,23.89
2023-05-27T03:23:47.186Z,23.89
2023-05-27T03:26:14.342Z,23.89
2023-05-27T03:28:41.743Z,23.89
2023-05-27T03:31:14.174Z,23.89
2023-05-27T03:33:51.940Z,23.88
2023-05-27T03:36:19.367Z,23.88
2023-05-27T03:38:46.897Z,23.88
2023-05-27T03:41:14.954Z,23.87
2023-05-27T03:43:42.363Z,23.88
2023-05-27T03:46:11.622Z,23.87
2023-05-27T03:48:38.850Z,23.86
2023-05-27T03:51:06.063Z,23.85
2023-05-27T03:53:33.372Z,23.85
2023-05-27T03:56:00.897Z,23.86
2023-05-27T03:58:28.545Z,23.85
2023-05-27T04:00:56.490Z,23.83
2023-05-27T04:03:24.237Z,23.83
2023-05-27T04:05:51.632Z,23.84
2023-05-27T04:08:18.799Z,23.85
2023-05-27T04:10:46.050Z,23.86
2023-05-27T04:13:13.302Z,23.86
2023-05-27T04:15:41.523Z,23.85
2023-05-27T04:18:08.749Z,23.83
2023-05-27T04:20:41.913Z,23.83
2023-05-27T04:23:09.949Z,23.82
2023-05-27T04:25:38.540Z,23.80
2023-05-27T04:28:06.753Z,23.80
2023-05-27T04:30:36.944Z,23.80
2023-05-27T04:33:05.586Z,23.78
2023-05-27T04:35:33.018Z,23.77
2023-05-27T04:38:03.138Z,23.75
2023-05-27T04:40:35.748Z,23.73
2023-05-27T04:43:16.588Z,23.70
2023-05-27T04:45:44.857Z,23.68
2023-05-27T04:48:12.679Z,23.69
2023-05-27T04:50:40.656Z,23.70
2023-05-27T04:53:08.533Z,23.70
2023-05-27T04:55:37.314Z,23.70
2023-05-27T04:58:06.634Z,23.70
2023-05-27T05:00:51.481Z,23.70
2023-05-27T05:03:23.193Z,23.69
2023-05-27T05:05:54.453Z,23.68
2023-05-27T05:08:22.821Z,23.68
2023-05-27T05:10:52.751Z,23.67
2023-05-27T05:13:20.300Z,23.66
2023-05-27T05:15:48.401Z,23.65
2023-05-27T05:18:15.711Z,23.64
2023-05-27T05:20:44.736Z,23.65
2023-05-27T05:23:13.333Z,23.66
2023-05-27T05:25:41.183Z,23.67
2023-05-27T05:28:09.033Z,23.68
2023-05-27T05:30:36.976Z,23.69
2023-05-27T05:33:05.081Z,23.69
2023-05-27T05:35:33.232Z,23.69
2023-05-27T05:38:23.558Z,23.68
2023-05-27T05:40:53.790Z,23.66
2023-05-27T05:43:21.944Z,23.65
2023-05-27T05:45:49.887Z,23.63
2023-05-27T05:48:18.631Z,23.62
2023-05-27T05:50:46.896Z,23.60
2023-05-27T05:53:14.937Z,23.58
2023-05-27T05:55:42.603Z,23.57
2023-05-27T05:58:09.888Z,23.55
2023-05-27T06:00:38.334Z,23.55
2023-05-27T06:03:25.773Z,23.55
2023-05-27T06:05:56.205Z,23.55
2023-05-27T06:08:23.478Z,23.55
2023-05-27T06:10:57.894Z,23.53
2023-05-27T06:13:25.558Z,23.52
2023-05-27T06:15:56.895Z,23.51
2023-05-27T06:18:25.185Z,23.50
2023-05-27T06:20:52.979Z,23.48
2023-05-27T06:23:21.637Z,23.47
2023-05-27T06:26:09.142Z,23.47
2023-05-27T06:28:42.270Z,23.47
2023-05-27T06:31:10.977Z,23.47
2023-05-27T06:33:42.509Z,23.47
2023-05-27T06:36:10.182Z,23.46
2023-05-27T06:38:39.367Z,23.46
2023-05-27T06:41:06.721Z,23.44
2023-05-27T06:43:35.247Z,23.44
2023-05-27T06:46:24.216Z,23.45
2023-05-27T06:48:58.286Z,23.47
2023-05-27T06:51:25.856Z,23.49
2023-05-27T06:53:54.306Z,23.52
2023-05-27T06:56:27.429Z,23.54
2023-05-27T06:59:17.575Z,23.56
2023-05-27T07:01:45.736Z,23.58
2023-05-27T07:04:15.599Z,23.60
2023-05-27T07:06:54.892Z,23.63
2023-05-27T07:09:22.613Z,23.67
2023-05-27T07:11:50.058Z,23.69
2023-05-27T07:14:37.587Z,23.71
2023-05-27T07:17:05.171Z,23.73
2023-05-27T07:19:32.653Z,23.74
2023-05-27T07:22:02.940Z,23.75
2023-05-27T07:24:30.696Z,23.76
2023-05-27T07:26:58.322Z,23.76
2023-05-27T07:29:27.049Z,23.76
2023-05-27T07:31:55.047Z,23.76
2023-05-27T07:34:27.677Z,23.77
2023-05-27T07:36:55.163Z,23.79
2023-05-27T07:39:22.622Z,23.79
2023-05-27T07:41:49.922Z,23.80
2023-05-27T07:44:17.340Z,23.80
2023-05-27T07:46:44.671Z,23.81
2023-05-27T07:49:12.254Z,23.85
2023-05-27T07:51:47.081Z,23.87
2023-05-27T07:54:14.815Z,23.88
2023-05-27T07:56:41.860Z,23.89
2023-05-27T07:59:09.208Z,23.90
2023-05-27T08:01:36.416Z,23.92
2023-05-27T08:04:16.287Z,23.93
2023-05-27T08:07:09.060Z,23.95
2023-05-27T08:09:56.538Z,23.95
2023-05-27T08:12:42.434Z,23.94
2023-05-27T08:15:22.054Z,23.93
2023-05-27T08:18:03.269Z,23.91
2023-05-27T08:20:54.512Z,23.89
2023-05-27T08:23:29.833Z,23.88
2023-05-27T08:26:24.412Z,23.86
2023-05-27T08:29:23.569Z,23.86
2023-05-27T08:32:13.650Z,23.86
2023-05-27T08:34:42.610Z,23.87
2023-05-27T08:37:10.460Z,23.86
2023-05-27T08:39:40.901Z,23.87
2023-05-27T08:42:23.307Z,23.87
2023-05-27T08:44:51.550Z,23.87
2023-05-27T08:47:18.775Z,23.87
2023-05-27T08:49:46.915Z,23.88
2023-05-27T08:52:20.686Z,23.89
2023-05-27T08:54:50.225Z,23.90
2023-05-27T08:57:22.321Z,23.91
2023-05-27T08:59:49.660Z,23.91
2023-05-27T09:02:17.356Z,23.92
2023-05-27T09:04:45.285Z,23.93
2023-05-27T09:07:12.608Z,23.93
2023-05-27T09:09:43.775Z,23.92
2023-05-27T09:12:11.131Z,23.92
2023-05-27T09:14:44.017Z,23.91
2023-05-27T09:17:11.173Z,23.91
2023-05-27T09:19:38.540Z,23.90
2023-05-27T09:22:05.735Z,23.89
2023-05-27T09:24:32.999Z,23.88
2023-05-27T09:27:02.156Z,23.87
2023-05-27T09:29:29.950Z,23.87
2023-05-27T09:31:57.805Z,23.88
2023-05-27T09:34:25.340Z,23.89
2023-05-27T09:36:54.198Z,23.90
2023-05-27T09:39:24.008Z,23.90
2023-05-27T09:41:54.530Z,23.91
2023-05-27T09:44:21.888Z,23.92
2023-05-27T09:46:53.421Z,23.93
2023-05-27T09:49:22.387Z,23.95
2023-05-27T09:51:50.085Z,23.96
2023-05-27T09:54:21.334Z,23.98
2023-05-27T09:56:50.594Z,23.99
2023-05-27T09:59:18.735Z,24.01
2023-05-27T10:01:48.567Z,24.02
2023-05-27T10:04:17.666Z,24.03
2023-05-27T10:06:46.938Z,24.04
2023-05-27T10:09:14.775Z,24.03
2023-05-27T10:11:42.808Z,24.03
2023-05-27T10:14:12.111Z,24.03
2023-05-27T10:16:39.494Z,24.02
2023-05-27T10:19:12.148Z,24.01
2023-05-27T10:21:45.340Z,24.00
2023-05-27T10:24:16.090Z,23.98
2023-05-27T10:26:45.331Z,23.96
2023-05-27T10:29:21.706Z,23.97
2023-05-27T10:31:54.090Z,23.99
2023-05-27T10:34:21.936Z,24.01
2023-05-27T10:37:00.991Z,24.03
2023-05-27T10:39:30.256Z,24.04
2023-05-27T10:41:58.980Z,24.04
2023-05-27T10:44:41.314Z,24.04
2023-05-27T10:47:13.460Z,24.03
2023-05-27T10:49:41.821Z,24.03
2023-05-27T10:52:18.104Z,24.04
2023-05-27T10:54:53.809Z,24.05
2023-05-27T10:57:23.741Z,24.05
2023-05-27T10:59:58.493Z,24.05
2023-05-27T11:02:33.024Z,24.04
2023-05-27T11:05:00.316Z,24.02
2023-05-27T11:07:28.059Z,24.02
2023-05-27T11:09:56.726Z,24.02
2023-05-27T11:12:25.659Z,24.01
2023-05-27T11:14:55.641Z,24.00
2023-05-27T11:17:24.578Z,23.99
2023-05-27T11:19:52.079Z,23.99
2023-05-27T11:22:20.810Z,23.98
2023-05-27T11:24:57.064Z,23.98
2023-05-27T11:27:24.582Z,23.98
2023-05-27T11:29:53.933Z,23.97
2023-05-27T11:32:22.223Z,23.97
2023-05-27T11:34:49.887Z,23.97
2023-05-27T11:37:18.081Z,23.97
2023-05-27T11:39:53.137Z,23.99
2023-05-27T11:42:25.374Z,24.01
2023-05-27T11:44:55.139Z,24.03
2023-05-27T11:47:24.017Z,24.04
2023-05-27T11:49:51.840Z,24.05
2023-05-27T11:52:19.623Z,24.07
2023-05-27T11:57:22.591Z,24.08
2023-05-27T11:59:49.974Z,24.08
2023-05-27T12:02:17.444Z,24.07
2023-05-27T12:04:44.998Z,24.07
2023-05-27T12:07:20.241Z,24.06
2023-05-27T12:09:52.706Z,24.04
2023-05-27T12:12:23.034Z,24.04
2023-05-27T12:14:50.289Z,24.03
2023-05-27T12:17:17.762Z,24.02
2023-05-27T12:19:45.201Z,24.02
2023-05-27T12:22:12.564Z,24.02
2023-05-27T12:24:39.838Z,24.01
2023-05-27T12:27:07.046Z,24.01
2023-05-27T12:29:36.379Z,24.00
2023-05-27T12:32:03.944Z,23.99
2023-05-27T12:34:31.389Z,23.99
2023-05-27T12:36:58.906Z,23.98
2023-05-27T12:39:26.374Z,23.99
2023-05-27T12:41:53.662Z,23.99
2023-05-27T12:44:21.182Z,24.00
2023-05-27T12:46:48.695Z,24.00
2023-05-27T12:49:15.942Z,23.99
2023-05-27T12:51:44.089Z,24.00
2023-05-27T12:54:12.905Z,24.00
2023-05-27T12:56:40.459Z,24.00
2023-05-27T12:59:08.339Z,24.00
2023-05-27T13:01:35.887Z,24.01
2023-05-27T13:04:03.110Z,24.00
2023-05-27T13:06:30.501Z,24.01
2023-05-27T13:08:57.754Z,24.02
2023-05-27T13:11:25.066Z,24.04
2023-05-27T13:13:52.468Z,24.06
2023-05-27T13:16:19.761Z,24.06
2023-05-27T13:18:47.894Z,24.07
2023-05-27T13:21:15.462Z,24.08
2023-05-27T13:23:42.968Z,24.08
2023-05-27T13:26:10.852Z,24.08
2023-05-27T13:28:38.466Z,24.09
2023-05-27T13:31:06.419Z,24.09
2023-05-27T13:33:33.878Z,24.10
2023-05-27T13:36:01.070Z,24.10
2023-05-27T13:38:28.402Z,24.12
2023-05-27T13:40:55.484Z,24.12
2023-05-27T13:43:22.798Z,24.11
2023-05-27T13:45:50.181Z,24.12
2023-05-27T13:48:17.796Z,24.12
2023-05-27T13:50:45.897Z,24.13
2023-05-27T13:53:13.302Z,24.15
2023-05-27T13:55:40.609Z,24.14
2023-05-27T13:58:08.363Z,24.13
2023-05-27T14:00:36.248Z,24.13
2023-05-27T14:03:03.710Z,24.12
2023-05-27T14:05:31.687Z,24.12
2023-05-27T14:07:59.035Z,24.12
2023-05-27T14:10:26.486Z,24.12
2023-05-27T14:12:54.350Z,24.12
2023-05-27T14:15:21.458Z,24.12
2023-05-27T14:17:48.667Z,24.12
2023-05-27T14:20:16.017Z,24.12
2023-05-27T14:22:44.181Z,24.13
2023-05-27T14:25:11.836Z,24.15
2023-05-27T14:27:39.106Z,24.16
2023-05-27T14:30:07.078Z,24.18
2023-05-27T14:32:34.959Z,24.20
2023-05-27T14:35:02.016Z,24.22
2023-05-27T14:37:29.418Z,24.23
2023-05-27T14:39:59.587Z,24.24
2023-05-27T14:42:29.077Z,24.24
2023-05-27T14:44:58.542Z,24.25
2023-05-27T14:47:28.518Z,24.25
2023-05-27T14:49:55.921Z,24.25
2023-05-27T14:52:23.681Z,24.25
2023-05-27T14:54:51.083Z,24.26
2023-05-27T14:57:18.380Z,24.26
2023-05-27T14:59:45.878Z,24.27
2023-05-27T15:02:13.005Z,24.27
2023-05-27T15:04:40.003Z,24.27
2023-05-27T15:07:07.050Z,24.28
2023-05-27T15:09:34.053Z,24.27
2023-05-27T15:12:01.039Z,24.28
2023-05-27T15:14:28.262Z,24.28
2023-05-27T15:16:55.254Z,24.28
2023-05-27T15:19:22.651Z,24.28
2023-05-27T15:21:49.626Z,24.27
2023-05-27T15:24:16.887Z,24.28
2023-05-27T15:26:44.146Z,24.27
2023-05-27T15:29:11.244Z,24.27
2023-05-27T15:31:38.342Z,24.27
2023-05-27T15:34:06.112Z,24.27
2023-05-27T15:36:33.321Z,24.27
2023-05-27T15:39:00.477Z,24.27
2023-05-27T15:41:27.470Z,24.28
2023-05-27T15:43:54.398Z,24.27
2023-05-27T15:46:25.472Z,24.27
2023-05-27T15:48:53.221Z,24.28
2023-05-27T15:51:20.209Z,24.28
2023-05-27T15:53:47.363Z,24.28
2023-05-27T15:56:14.392Z,24.27
2023-05-27T15:58:41.444Z,24.27
2023-05-27T16:01:08.422Z,24.27
2023-05-27T16:03:35.467Z,24.28
2023-05-27T16:06:07.016Z,24.28
2023-05-27T16:08:34.007Z,24.28
2023-05-27T16:11:01.238Z,24.27
2023-05-27T16:13:28.274Z,24.28
2023-05-27T16:15:57.003Z,24.27
2023-05-27T16:18:24.127Z,24.27
2023-05-27T16:20:52.528Z,24.27
2023-05-27T16:23:20.306Z,24.28
2023-05-27T16:25:47.651Z,24.29
2023-05-27T16:28:14.718Z,24.29
2023-05-27T16:30:41.738Z,24.29
2023-05-27T16:33:08.743Z,24.29
2023-05-27T16:35:36.057Z,24.30
2023-05-27T16:38:03.044Z,24.29
2023-05-27T16:40:30.022Z,24.30
2023-05-27T16:42:57.012Z,24.29
2023-05-27T16:45:24.038Z,24.29
2023-05-27T16:47:51.063Z,24.29
2023-05-27T16:50:18.213Z,24.30
2023-05-27T16:52:45.414Z,24.30
2023-05-27T16:55:12.350Z,24.30
2023-05-27T16:57:39.569Z,24.30
2023-05-27T17:00:07.474Z,24.30
2023-05-27T17:02:34.709Z,24.29
2023-05-27T17:05:01.969Z,24.28
2023-05-27T17:07:29.212Z,24.26
2023-05-27T17:09:56.564Z,24.24
2023-05-27T17:12:23.568Z,24.22
2023-05-27T17:14:55.403Z,24.25
2023-05-27T17:17:22.329Z,24.25
2023-05-27T17:19:49.615Z,24.23
2023-05-27T17:22:16.910Z,24.24
2023-05-27T17:24:43.957Z,24.24
2023-05-27T17:27:11.515Z,24.23
2023-05-27T17:29:39.704Z,24.22
2023-05-27T17:32:07.979Z,24.21
2023-05-27T17:34:35.058Z,24.20
2023-05-27T17:37:02.101Z,24.19
2023-05-27T17:39:29.074Z,24.17
2023-05-27T17:41:56.608Z,24.15
2023-05-27T17:44:23.954Z,24.14
2023-05-27T17:46:51.075Z,24.13
2023-05-27T17:49:18.211Z,24.10
2023-05-27T17:51:45.196Z,24.09
2023-05-27T17:54:12.427Z,24.07
2023-05-27T17:56:39.528Z,24.07
2023-05-27T17:59:06.527Z,24.08
2023-05-27T18:01:33.759Z,24.10
2023-05-27T18:04:01.020Z,24.10
2023-05-27T18:06:28.033Z,24.10
2023-05-27T18:08:55.143Z,24.10
2023-05-27T18:11:23.020Z,24.11
2023-05-27T18:13:50.400Z,24.10
2023-05-27T18:16:17.398Z,24.09
2023-05-27T18:18:44.502Z,24.09
2023-05-27T18:21:12.228Z,24.07
2023-05-27T18:23:39.160Z,24.07
2023-05-27T18:26:06.816Z,24.06
2023-05-27T18:28:33.812Z,24.05
2023-05-27T18:31:01.020Z,24.04
2023-05-27T18:33:28.284Z,24.03
2023-05-27T18:35:55.534Z,24.02
2023-05-27T18:38:22.572Z,24.03
2023-05-27T18:40:52.262Z,24.03
2023-05-27T18:43:20.203Z,24.04
2023-05-27T18:45:58.159Z,24.05
2023-05-27T18:48:29.247Z,24.04
2023-05-27T18:50:58.042Z,24.04
2023-05-27T18:53:25.759Z,24.04
2023-05-27T18:55:53.756Z,24.04
2023-05-27T18:58:21.628Z,24.03
2023-05-27T19:00:48.715Z,24.02
2023-05-27T19:03:18.448Z,24.01
2023-05-27T19:05:47.046Z,24.00
2023-05-27T19:08:14.428Z,24.00
2023-05-27T19:10:41.525Z,24.01
2023-05-27T19:13:08.624Z,24.00
2023-05-27T19:15:38.270Z,24.01
2023-05-27T19:18:06.105Z,24.01
2023-05-27T19:20:33.699Z,24.00
2023-05-27T19:23:00.977Z,24.00
2023-05-27T19:25:28.236Z,23.99
2023-05-27T19:27:56.362Z,23.99
2023-05-27T19:30:25.574Z,23.99
2023-05-27T19:32:53.292Z,23.98
2023-05-27T19:35:20.426Z,23.99
2023-05-27T19:37:48.082Z,24.00
2023-05-27T19:40:15.922Z,24.00
2023-05-27T19:42:43.121Z,24.00
2023-05-27T19:45:10.976Z,24.00
2023-05-27T19:47:38.201Z,24.00
2023-05-27T19:50:06.837Z,24.00
2023-05-27T19:52:33.834Z,24.00
2023-05-27T19:55:02.441Z,24.00
2023-05-27T19:57:29.861Z,23.99
2023-05-27T19:59:56.933Z,23.99
2023-05-27T20:02:24.074Z,23.99
2023-05-27T20:04:51.374Z,24.00
2023-05-27T20:07:18.506Z,24.01
2023-05-27T20:09:45.631Z,23.99
2023-05-27T20:12:12.921Z,23.99
2023-05-27T20:14:40.031Z,23.97
2023-05-27T20:17:08.231Z,23.94
2023-05-27T20:19:35.607Z,23.92
2023-05-27T20:22:02.545Z,23.90
2023-05-27T20:24:29.715Z,23.87
2023-05-27T20:26:56.710Z,23.85
2023-05-27T20:29:24.213Z,23.82
2023-05-27T20:31:51.337Z,23.80
2023-05-27T20:34:18.489Z,23.78
2023-05-27T20:36:45.933Z,23.79
2023-05-27T20:39:12.937Z,23.79
2023-05-27T20:41:40.068Z,23.79
2023-05-27T20:44:07.227Z,23.79
2023-05-27T20:46:34.517Z,23.78
2023-05-27T20:49:02.253Z,23.77
2023-05-27T20:51:29.202Z,23.76
2023-05-27T20:53:57.786Z,23.75
2023-05-27T20:56:29.780Z,23.74
2023-05-27T20:58:58.362Z,23.75
2023-05-27T21:01:32.305Z,23.76
2023-05-27T21:04:05.404Z,23.77
2023-05-27T21:06:33.244Z,23.78
2023-05-27T21:09:00.389Z,23.79
2023-05-27T21:11:27.802Z,23.80
2023-05-27T21:13:54.928Z,23.80
2023-05-27T21:16:22.101Z,23.79
2023-05-27T21:18:49.264Z,23.79
2023-05-27T21:21:16.415Z,23.79
2023-05-27T21:23:43.552Z,23.79
2023-05-27T21:26:11.347Z,23.80
2023-05-27T21:28:39.850Z,23.81
2023-05-27T21:31:07.042Z,23.83
2023-05-27T21:33:34.114Z,23.85
2023-05-27T21:36:01.636Z,23.86
2023-05-27T21:38:32.931Z,23.85
2023-05-27T21:41:00.969Z,23.83
2023-05-27T21:43:28.091Z,23.82
2023-05-27T21:45:55.384Z,23.82
2023-05-27T21:48:22.824Z,23.82
2023-05-27T21:50:50.240Z,23.82
2023-05-27T21:53:17.274Z,23.80
2023-05-27T21:55:44.615Z,23.80
2023-05-27T21:58:11.910Z,23.79
2023-05-27T22:00:42.191Z,23.79
2023-05-27T22:03:09.750Z,23.80
2023-05-27T22:05:36.969Z,23.80
2023-05-27T22:08:05.663Z,23.80
2023-05-27T22:10:33.753Z,23.80
2023-05-27T22:13:02.035Z,23.81
2023-05-27T22:15:29.874Z,23.81
2023-05-27T22:17:57.481Z,23.81
2023-05-27T22:20:24.829Z,23.82
2023-05-27T22:22:52.197Z,23.82
2023-05-27T22:25:19.365Z,23.84
2023-05-27T22:27:47.590Z,23.85
2023-05-27T22:30:15.035Z,23.85
2023-05-27T22:32:42.684Z,23.85
2023-05-27T22:35:10.382Z,23.85
2023-05-27T22:37:37.508Z,23.85
2023-05-27T22:40:05.477Z,23.86
2023-05-27T22:42:32.560Z,23.85
2023-05-27T22:45:00.808Z,23.85
2023-05-27T22:47:28.019Z,23.84
2023-05-27T22:49:55.102Z,23.84
2023-05-27T22:52:22.914Z,23.85
2023-05-27T22:54:50.370Z,23.84
2023-05-27T22:57:17.564Z,23.84
2023-05-27T22:59:45.276Z,23.83
2023-05-27T23:02:14.778Z,23.83
2023-05-27T23:04:42.014Z,23.84
2023-05-27T23:07:09.213Z,23.83
2023-05-27T23:09:38.818Z,23.83
2023-05-27T23:12:06.585Z,23.81
2023-05-27T23:14:33.822Z,23.80
2023-05-27T23:17:02.358Z,23.78
2023-05-27T23:19:30.517Z,23.77
2023-05-27T23:21:57.554Z,23.75
2023-05-27T23:24:24.938Z,23.75
2023-05-27T23:26:52.074Z,23.75
2023-05-27T23:29:19.159Z,23.73
2023-05-27T23:31:46.648Z,23.72
2023-05-27T23:34:14.538Z,23.71
2023-05-27T23:36:43.839Z,23.70
2023-05-27T23:39:11.614Z,23.69
2023-05-27T23:41:38.617Z,23.68
2023-05-27T23:44:06.315Z,23.66
2023-05-27T23:46:33.510Z,23.64
2023-05-27T23:49:00.827Z,23.62
2023-05-27T23:51:27.870Z,23.62
2023-05-27T23:53:54.944Z,23.62
2023-05-27T23:56:22.069Z,23.61
2023-05-27T23:58:49.323Z,23.60
